Time;durP1;ratioP1;P1;durP2;ratioP2;P2;SDS_P1;SDS_P2;PMS_P1;PMS_P2;Temp;Humidity;BMP_temperature;BMP_pressure;BME280_temperature;BME280_humidity;BME280_pressure;Samples;Min_cycle;Max_cycle;Signal;HPM_P1;HPM_P2
2021/09/14 00:01:39;;;;;;;10.65;8.07;;;;;;;20.81;64.58;100920.03;5048783;27;102227;-49
2021/09/14 00:04:06;;;;;;;9.85;7.60;;;;;;;20.81;64.59;100913.69;5037726;27;102829;-50
2021/09/14 00:06:38;;;;;;;9.95;7.75;;;;;;;20.80;64.61;100917.59;5038766;27;102421;-50
2021/09/14 00:09:05;;;;;;;9.05;7.68;;;;;;;20.80;64.57;100904.56;5037114;27;103923;-50
2021/09/14 00:11:33;;;;;;;;;;;;;;;20.80;64.76;100920.34;5033223;27;102654;-50
2021/09/14 00:14:04;;;;;;;8.70;7.80;;;;;;;20.81;64.67;100910.94;5040301;27;102163;-50
2021/09/14 00:16:31;;;;;;;8.93;8.00;;;;;;;20.80;64.79;100918.41;5047264;27;102625;-50
2021/09/14 00:18:58;;;;;;;8.38;7.25;;;;;;;20.79;64.70;100922.31;5043961;27;103933;-50
2021/09/14 00:21:25;;;;;;;10.07;7.93;;;;;;;20.80;64.53;100917.59;5045323;27;102496;-50
2021/09/14 00:23:52;;;;;;;8.05;7.18;;;;;;;20.80;64.66;100915.63;5034530;27;103080;-49
2021/09/14 00:26:20;;;;;;;8.82;7.65;;;;;;;20.80;64.85;100917.59;5046167;27;102494;-50
2021/09/14 00:28:47;;;;;;;8.40;7.60;;;;;;;20.79;64.79;100914.03;5030438;27;103901;-50
2021/09/14 00:31:14;;;;;;;8.75;7.30;;;;;;;20.79;64.58;100916.78;5046314;27;102169;-49
2021/09/14 00:33:41;;;;;;;8.47;7.30;;;;;;;20.79;64.69;100915.97;5047124;27;102791;-49
2021/09/14 00:36:08;;;;;;;8.77;7.72;;;;;;;20.79;64.71;100916.78;5047199;27;102646;-50
2021/09/14 00:38:34;;;;;;;9.90;7.63;;;;;;;20.78;64.58;100912.41;5038662;27;104234;-49
2021/09/14 00:41:01;;;;;;;7.75;7.03;;;;;;;20.78;64.70;100912.41;5039491;27;102509;-50
2021/09/14 00:43:27;;;;;;;9.00;8.10;;;;;;;20.79;64.61;100915.97;5045296;27;103770;-50
2021/09/14 00:45:54;;;;;;;9.98;7.78;;;;;;;20.79;64.68;100911.25;5046528;27;102268;-50
2021/09/14 00:48:23;;;;;;;9.35;8.35;;;;;;;20.78;64.71;100903.31;5045205;27;104081;-50
2021/09/14 00:50:50;;;;;;;10.73;7.82;;;;;;;20.79;64.78;100905.72;5038253;27;102509;-50
2021/09/14 00:53:16;;;;;;;9.25;7.68;;;;;;;20.79;64.65;100916.78;5047145;27;102525;-49
2021/09/14 00:55:43;;;;;;;8.50;7.65;;;;;;;20.78;64.70;100908.84;5050024;27;102619;-50
2021/09/14 00:58:10;;;;;;;8.57;7.68;;;;;;;20.78;64.67;100906.88;5053370;27;103792;-50
2021/09/14 01:00:37;;;;;;;9.70;8.10;;;;;;;20.78;64.74;100914.38;5042347;27;102129;-50
2021/09/14 01:03:04;;;;;;;9.30;7.38;;;;;;;20.77;65.20;100913.56;5047277;27;101965;-50
2021/09/14 01:05:32;;;;;;;8.77;7.88;;;;;;;20.77;64.85;100910.78;5040821;27;102357;-50
2021/09/14 01:08:00;;;;;;;8.23;7.43;;;;;;;20.78;64.58;100915.19;5042818;27;103976;-50
2021/09/14 01:10:28;;;;;;;7.72;6.93;;;;;;;20.78;64.58;100917.94;5046161;27;102185;-49
2021/09/14 01:12:56;;;;;;;8.15;7.35;;;;;;;20.77;64.69;100910.78;5046758;27;102185;-49
2021/09/14 01:15:24;;;;;;;8.20;7.35;;;;;;;20.78;64.75;100923.47;5030905;27;102214;-50
2021/09/14 01:17:51;;;;;;;9.77;7.35;;;;;;;20.77;64.68;100919.09;5041483;27;108060;-49
2021/09/14 01:20:21;;;;;;;8.77;7.40;;;;;;;20.77;64.72;100908.03;5045615;27;102456;-49
2021/09/14 01:22:50;;;;;;;8.60;7.40;;;;;;;20.76;64.61;100917.44;5043836;27;102975;-49
2021/09/14 01:25:23;;;;;;;8.05;7.25;;;;;;;20.78;64.61;100906.06;5046218;27;102725;-49
2021/09/14 01:27:50;;;;;;;9.65;7.45;;;;;;;20.77;64.28;100924.63;5049083;27;103952;-49
2021/09/14 01:30:20;;;;;;;8.38;6.68;;;;;;;20.77;64.70;100921.84;5046340;27;102442;-50
2021/09/14 01:32:48;;;;;;;7.75;7.05;;;;;;;20.78;64.78;100925.44;5046016;27;102331;-50
2021/09/14 01:35:17;;;;;;;8.30;7.50;;;;;;;20.76;64.79;100928.50;5037164;27;102256;-49
2021/09/14 01:37:44;;;;;;;7.85;7.05;;;;;;;20.76;64.64;100922.97;5038895;27;104296;-49
2021/09/14 01:40:12;;;;;;;8.93;7.43;;;;;;;20.76;64.38;100928.50;5055631;27;103520;-49
2021/09/14 01:42:39;;;;;;;7.70;7.00;;;;;;;20.75;64.91;100932.44;5043842;27;102657;-49
2021/09/14 01:45:08;;;;;;;7.20;6.50;;;;;;;20.77;64.70;100926.56;5039445;27;102369;-50
2021/09/14 01:47:35;;;;;;;7.60;6.80;;;;;;;20.76;64.74;100928.50;5041503;27;103913;-50
2021/09/14 01:50:02;;;;;;;7.82;6.90;;;;;;;20.77;64.75;100930.16;5055683;27;102127;-50
2021/09/14 01:52:31;;;;;;;9.23;7.70;;;;;;;20.77;64.92;100929.31;5044936;27;102345;-50
2021/09/14 01:54:59;;;;;;;7.95;7.15;;;;;;;20.76;64.74;100928.50;5044533;27;102795;-49
2021/09/14 01:57:34;;;;;;;8.68;7.60;;;;;;;20.76;64.90;100927.72;5044968;27;104318;-50
2021/09/14 02:00:03;;;;;;;8.18;7.30;;;;;;;20.77;64.62;100930.16;5050925;27;102185;-50
2021/09/14 02:41:19;;;;;;;9.48;8.40;;;;;;;20.73;64.80;100934.72;5049119;27;103878;-50
2021/09/14 03:00:04;;;;;;;10.52;8.18;;;;;;;20.72;64.88;100938.63;5021855;27;103558;-49
2021/09/14 03:02:32;;;;;;;8.63;7.72;;;;;;;20.72;65.01;100944.16;5050176;27;103622;-49
2021/09/14 03:04:58;;;;;;;11.13;8.52;;;;;;;20.72;64.99;100949.69;5051955;27;102156;-50
2021/09/14 03:07:25;;;;;;;10.32;7.97;;;;;;;20.72;64.83;100948.88;5048935;27;101860;-49
2021/09/14 03:09:51;;;;;;;11.10;7.93;;;;;;;20.73;64.92;100950.50;5048344;27;102280;-50
2021/09/14 03:12:20;;;;;;;16.55;8.25;;;;;;;20.72;64.76;100955.22;5054281;27;103914;-49
2021/09/14 03:14:49;;;;;;;9.18;7.82;;;;;;;20.71;64.92;100948.09;5047231;27;102502;-49
2021/09/14 03:17:15;;;;;;;8.45;7.55;;;;;;;20.72;65.11;100951.66;5046004;27;102484;-49
2021/09/14 03:19:44;;;;;;;9.45;7.50;;;;;;;20.71;65.03;100950.84;5043054;27;102249;-50
2021/09/14 03:22:10;;;;;;;;;;;;;;;20.72;65.20;100958.00;5044133;27;103852;-50
2021/09/14 03:24:37;;;;;;;8.75;7.70;;;;;;;20.71;64.97;100959.16;5049187;27;102340;-49
2021/09/14 03:27:04;;;;;;;10.77;8.85;;;;;;;20.71;64.94;100958.34;5042480;27;102437;-49
2021/09/14 03:29:30;;;;;;;10.30;8.88;;;;;;;20.71;64.91;100972.97;5049637;27;102508;-50
2021/09/14 03:31:57;;;;;;;8.98;7.80;;;;;;;20.71;64.80;100969.41;5038439;27;104127;-50
2021/09/14 03:34:24;;;;;;;9.15;8.25;;;;;;;20.71;64.93;100981.28;5040649;27;102191;-50
2021/09/14 03:36:51;;;;;;;10.90;8.40;;;;;;;20.71;64.91;100981.28;5043540;27;102810;-50
2021/09/14 03:39:18;;;;;;;13.15;8.90;;;;;;;20.70;64.92;100974.13;5046333;27;103125;-50
2021/09/14 03:41:44;;;;;;;11.82;8.43;;;;;;;20.71;64.78;100986.81;5048301;27;104081;-50
2021/09/14 03:44:11;;;;;;;10.88;8.77;;;;;;;20.70;64.98;100996.25;5048795;27;102002;-50
2021/09/14 03:46:38;;;;;;;8.68;7.78;;;;;;;20.70;64.75;100981.59;5055210;27;102500;-49
2021/09/14 03:49:05;;;;;;;9.05;7.97;;;;;;;20.70;64.98;100989.88;5049889;27;102321;-50
2021/09/14 03:51:31;;;;;;;9.43;8.32;;;;;;;20.70;64.94;100995.41;5044115;27;103778;-49
2021/09/14 03:53:59;;;;;;;10.48;8.63;;;;;;;20.70;65.02;100996.25;5049123;27;102556;-50
2021/09/14 03:56:26;;;;;;;9.63;8.23;;;;;;;20.70;64.84;100990.72;5046364;27;102426;-49
2021/09/14 03:58:53;;;;;;;9.43;8.05;;;;;;;20.70;64.92;100996.25;5046628;27;102189;-49
2021/09/14 04:01:19;;;;;;;9.20;8.20;;;;;;;20.69;64.98;101000.13;5046733;27;104056;-50
2021/09/14 04:04:23;;;;;;;9.60;7.95;;;;;;;20.69;65.00;101002.91;5044864;27;102303;-50
2021/09/14 04:09:36;;;;;;;9.32;7.78;;;;;;;20.69;64.89;101000.13;5048763;27;102773;-50
2021/09/14 04:12:02;;;;;;;8.60;7.40;;;;;;;20.70;64.75;101006.47;5046744;27;103991;-49
2021/09/14 04:14:32;;;;;;;9.30;7.63;;;;;;;20.70;64.84;101012.84;5046696;27;102750;-49
2021/09/14 04:16:58;;;;;;;9.25;7.30;;;;;;;20.69;64.99;101011.19;5043625;27;102775;-50
2021/09/14 04:19:26;;;;;;;9.73;8.38;;;;;;;20.70;64.78;101003.72;5041846;27;102600;-50
2021/09/14 04:21:55;;;;;;;9.18;7.60;;;;;;;20.69;64.93;101011.19;5045950;27;104028;-50
2021/09/14 04:24:21;;;;;;;9.60;7.63;;;;;;;20.69;65.19;101011.19;5037854;27;102439;-50
2021/09/14 04:26:50;;;;;;;9.40;8.02;;;;;;;20.69;65.07;101016.72;5035285;27;102554;-49
2021/09/14 04:29:17;;;;;;;9.65;7.10;;;;;;;20.70;65.12;101020.31;5042975;27;102868;-50
2021/09/14 04:31:44;;;;;;;8.95;7.95;;;;;;;20.69;64.87;101022.25;5036618;27;103819;-49
2021/09/14 04:34:10;;;;;;;9.73;7.60;;;;;;;20.69;64.92;101022.25;5047096;27;102540;-50
2021/09/14 04:36:37;;;;;;;9.27;7.88;;;;;;;20.69;64.79;101022.25;5045951;27;102584;-49
2021/09/14 04:39:03;;;;;;;8.50;7.60;;;;;;;20.70;64.90;101023.06;5046220;27;102214;-50
2021/09/14 04:41:30;;;;;;;8.15;7.32;;;;;;;20.69;64.81;101022.25;5045145;27;104068;-50
2021/09/14 04:43:59;;;;;;;10.80;7.82;;;;;;;20.69;64.98;101027.78;5046888;27;102332;-50
2021/09/14 04:46:25;;;;;;;8.55;7.53;;;;;;;20.69;64.94;101021.44;5045405;27;102027;-50
2021/09/14 04:48:52;;;;;;;8.77;7.88;;;;;;;20.69;64.98;101027.78;5050365;27;102182;-50
2021/09/14 04:51:19;;;;;;;7.47;6.68;;;;;;;20.69;65.03;101027.78;5047416;27;103940;-49
2021/09/14 04:53:47;;;;;;;9.00;7.82;;;;;;;20.69;65.02;101033.31;5041385;27;102628;-50
2021/09/14 04:56:14;;;;;;;9.40;7.45;;;;;;;20.69;65.02;101035.28;5058354;27;102187;-49
2021/09/14 04:58:43;;;;;;;8.57;7.40;;;;;;;20.69;65.00;101022.25;5049576;27;103049;-50
2021/09/14 05:01:14;;;;;;;12.38;8.00;;;;;;;20.70;65.04;101029.44;5048904;27;103990;-49
2021/09/14 05:03:40;;;;;;;9.95;7.40;;;;;;;20.69;65.03;101030.56;5041753;27;102544;-50
2021/09/14 05:06:07;;;;;;;8.68;7.72;;;;;;;20.70;65.04;101029.44;5046330;27;102188;-49
2021/09/14 05:08:34;;;;;;;10.00;7.82;;;;;;;20.70;64.95;101039.66;5048856;27;102382;-50
2021/09/14 05:11:01;;;;;;;8.50;7.47;;;;;;;20.70;65.03;101032.19;5045075;27;104102;-49
2021/09/14 05:13:28;;;;;;;9.55;7.53;;;;;;;20.70;64.93;101034.97;5047939;27;102562;-50
2021/09/14 05:15:55;;;;;;;9.00;7.85;;;;;;;20.69;65.01;101026.97;5040192;27;102608;-49
2021/09/14 05:18:25;;;;;;;12.10;7.80;;;;;;;20.70;64.93;101043.25;5048557;27;102782;-50
2021/09/14 05:20:53;;;;;;;9.98;8.07;;;;;;;20.70;64.91;101023.91;5041637;27;104409;-50
2021/09/14 05:23:40;;;;;;;9.70;8.03;;;;;;;20.71;64.97;101031.06;5037937;27;102220;-49
2021/09/14 05:26:09;;;;;;;10.38;7.93;;;;;;;20.71;64.90;101024.72;5042446;27;102431;-49
2021/09/14 05:28:37;;;;;;;9.68;8.32;;;;;;;20.71;64.83;101036.59;5035653;27;102053;-49
2021/09/14 05:31:05;;;;;;;10.63;8.35;;;;;;;20.72;64.76;101024.38;5039072;27;103875;-51
2021/09/14 05:33:36;;;;;;;8.80;7.90;;;;;;;20.72;64.74;101032.66;5045058;27;102740;-49
2021/09/14 05:36:04;;;;;;;8.63;7.72;;;;;;;20.74;64.84;101035.13;5045805;27;102228;-49
2021/09/14 05:38:30;;;;;;;9.40;7.95;;;;;;;20.74;64.68;101041.44;5052124;27;102146;-50
2021/09/14 05:40:58;;;;;;;10.25;7.57;;;;;;;20.74;64.76;101035.91;5049818;27;103840;-49
2021/09/14 05:43:27;;;;;;;10.93;8.02;;;;;;;20.75;64.87;101037.53;5049856;27;102472;-49
2021/09/14 05:45:54;;;;;;;;;;;;;;;20.76;64.73;101038.34;5045260;27;103784;-49
2021/09/14 05:48:20;;;;;;;9.88;8.18;;;;;;;20.76;64.74;101033.63;5050745;27;102647;-49
2021/09/14 05:50:48;;;;;;;9.60;7.97;;;;;;;20.77;64.58;101045.47;5047933;27;103777;-49
2021/09/14 05:53:15;;;;;;;9.00;8.10;;;;;;;20.76;64.69;101039.16;5045020;27;102291;-49
2021/09/14 05:55:41;;;;;;;8.77;7.97;;;;;;;20.78;64.66;101042.41;5039847;27;102558;-50
2021/09/14 05:58:09;;;;;;;10.00;8.45;;;;;;;20.79;64.65;101043.22;5048774;27;102665;-49
2021/09/14 06:00:36;;;;;;;10.13;8.50;;;;;;;20.80;64.65;101044.81;5059020;27;104765;-49
2021/09/14 06:03:03;;;;;;;10.07;8.43;;;;;;;20.79;64.41;101038.50;5051081;27;102426;-50
2021/09/14 06:05:30;;;;;;;9.77;8.77;;;;;;;20.80;64.65;101040.09;5044524;27;102572;-49
2021/09/14 06:07:59;;;;;;;9.63;8.32;;;;;;;20.81;64.58;101043.69;5045340;27;102372;-49
2021/09/14 06:10:26;;;;;;;10.07;8.63;;;;;;;20.80;64.69;101040.09;5047447;27;103305;-50
2021/09/14 06:12:53;;;;;;;10.98;8.55;;;;;;;20.81;64.73;101047.28;5049324;27;102735;-49
2021/09/14 06:15:19;;;;;;;9.63;8.63;;;;;;;20.80;64.60;101037.34;5046275;27;102773;-50
2021/09/14 06:17:46;;;;;;;10.23;9.23;;;;;;;20.82;64.86;101039.78;5049716;27;102508;-50
2021/09/14 06:20:13;;;;;;;10.27;9.27;;;;;;;20.81;64.75;101041.75;5046084;27;103932;-50
2021/09/14 06:22:39;;;;;;;9.77;8.65;;;;;;;20.82;64.69;101042.56;5054395;27;102509;-50
2021/09/14 06:25:08;;;;;;;10.57;9.48;;;;;;;20.82;64.72;101046.13;5041806;27;102347;-50
2021/09/14 06:27:35;;;;;;;9.93;8.93;;;;;;;20.83;64.65;101038.63;5044264;27;102103;-49
2021/09/14 06:30:02;;;;;;;10.70;9.25;;;;;;;20.83;64.69;101044.97;5048282;27;103809;-50
2021/09/14 06:32:30;;;;;;;12.35;9.80;;;;;;;20.84;64.67;101048.53;5053634;27;102742;-50
2021/09/14 06:34:56;;;;;;;11.15;9.38;;;;;;;20.83;64.81;101033.91;5052256;27;102048;-50
2021/09/14 06:37:28;;;;;;;11.25;8.88;;;;;;;20.85;64.81;101048.22;5050757;27;102694;-49
2021/09/14 06:39:56;;;;;;;11.65;9.48;;;;;;;20.84;64.65;101046.63;5046499;27;103723;-50
2021/09/14 06:42:25;;;;;;;10.13;8.90;;;;;;;20.86;64.72;101051.81;5037815;27;102070;-49
2021/09/14 06:44:52;;;;;;;10.50;9.23;;;;;;;20.85;64.68;101048.22;5046788;27;103042;-50
2021/09/14 06:47:19;;;;;;;11.20;9.27;;;;;;;20.85;64.56;101048.22;5042318;27;102091;-49
2021/09/14 06:49:46;;;;;;;10.98;9.75;;;;;;;20.87;64.62;101054.22;5053844;27;103725;-49
2021/09/14 06:52:13;;;;;;;11.32;9.98;;;;;;;20.87;64.42;101048.69;5048605;27;102418;-50
2021/09/14 06:54:39;;;;;;;13.93;10.15;;;;;;;20.87;64.67;101057.00;5053932;27;102202;-50
2021/09/14 06:57:06;;;;;;;11.43;10.23;;;;;;;20.88;64.59;101058.63;5049573;27;102528;-50
2021/09/14 06:59:34;;;;;;;14.63;11.43;;;;;;;20.88;64.57;101053.09;5047923;27;104126;-49
2021/09/14 07:02:02;;;;;;;13.07;10.82;;;;;;;20.90;64.73;101060.25;5036936;27;102528;-50
2021/09/14 07:04:28;;;;;;;11.82;10.52;;;;;;;20.91;64.50;101059.09;5041531;27;102471;-50
2021/09/14 07:06:57;;;;;;;12.30;10.40;;;;;;;20.92;64.35;101063.50;5050531;27;102168;-49
2021/09/14 07:09:24;;;;;;;13.65;10.65;;;;;;;20.92;64.50;101063.50;5034495;27;104045;-50
2021/09/14 07:11:51;;;;;;;10.55;9.45;;;;;;;20.93;64.44;101065.13;5038185;27;102240;-49
2021/09/14 07:14:17;;;;;;;12.50;10.40;;;;;;;20.93;64.44;101065.13;5037678;27;102348;-49
2021/09/14 07:16:45;;;;;;;11.48;9.35;;;;;;;20.93;64.32;101063.16;5034698;27;102413;-50
2021/09/14 07:19:11;;;;;;;10.35;8.93;;;;;;;20.95;64.49;101060.03;5047130;27;104064;-50
2021/09/14 07:21:38;;;;;;;10.32;9.23;;;;;;;20.96;64.30;101064.47;5046197;27;102689;-49
2021/09/14 07:24:07;;;;;;;11.67;10.00;;;;;;;20.96;64.39;101058.94;5045795;27;102390;-49
2021/09/14 07:26:34;;;;;;;10.25;9.15;;;;;;;20.97;64.32;101060.53;5049488;27;102552;-49
2021/09/14 07:29:01;;;;;;;11.45;9.27;;;;;;;20.97;64.43;101061.34;5048330;27;103870;-50
2021/09/14 07:31:30;;;;;;;10.63;9.52;;;;;;;20.98;64.36;101057.44;5044321;27;102568;-50
2021/09/14 07:33:59;;;;;;;11.60;9.80;;;;;;;20.99;64.42;101059.06;5044937;27;102265;-49
2021/09/14 07:36:25;;;;;;;11.87;9.43;;;;;;;21.00;64.41;101059.88;5049382;27;102417;-50
2021/09/14 07:38:52;;;;;;;10.48;9.35;;;;;;;21.01;64.40;101062.28;5047437;27;103920;-50
2021/09/14 07:41:20;;;;;;;11.00;9.80;;;;;;;21.01;64.30;101051.22;5047208;27;102314;-49
2021/09/14 07:43:47;;;;;;;10.68;9.60;;;;;;;21.02;64.36;101054.81;5044829;27;102490;-50
2021/09/14 07:46:14;;;;;;;11.75;10.60;;;;;;;21.03;64.83;101053.69;5045364;27;102920;-49
2021/09/14 07:48:41;;;;;;;12.48;10.93;;;;;;;21.04;64.36;101060.81;5032262;27;103917;-50
2021/09/14 07:51:09;;;;;;;11.07;9.98;;;;;;;21.05;64.28;101056.91;5035797;27;103868;-50
2021/09/14 07:53:36;;;;;;;11.88;10.63;;;;;;;21.05;64.32;101056.91;5043191;27;102283;-50
2021/09/14 07:56:02;;;;;;;11.55;10.35;;;;;;;21.06;64.40;101053.00;5048685;27;102889;-50
2021/09/14 07:58:30;;;;;;;13.15;10.75;;;;;;;21.07;64.44;101052.66;5046443;27;102776;-50
2021/09/14 08:00:57;;;;;;;12.52;11.23;;;;;;;21.08;64.35;101056.25;5043323;27;102551;-49
2021/09/14 08:03:24;;;;;;;12.35;10.65;;;;;;;21.08;64.42;101050.72;5047183;27;102655;-50
2021/09/14 08:05:51;;;;;;;12.43;11.13;;;;;;;21.09;64.36;101046.78;5044071;27;102617;-49
2021/09/14 08:08:19;;;;;;;12.25;10.88;;;;;;;21.10;64.36;101040.94;5044662;27;103964;-49
2021/09/14 08:10:59;;;;;;;11.90;10.70;;;;;;;21.10;64.46;101054.78;5047280;27;102484;-49
2021/09/14 08:13:27;;;;;;;13.05;11.02;;;;;;;21.11;64.44;101041.75;5039138;27;102594;-49
2021/09/14 08:15:53;;;;;;;11.40;10.23;;;;;;;21.12;64.37;101054.44;5042385;27;102341;-49
2021/09/14 08:18:20;;;;;;;11.73;10.52;;;;;;;21.12;64.42;101048.88;5045210;27;103777;-49
2021/09/14 08:20:47;;;;;;;12.15;10.95;;;;;;;21.14;64.46;101049.38;5048742;27;102813;-50
2021/09/14 08:23:13;;;;;;;11.60;10.40;;;;;;;21.14;64.55;101049.38;5056500;27;102670;-49
2021/09/14 08:25:41;;;;;;;11.85;10.73;;;;;;;21.16;64.42;101049.03;5029073;27;102203;-49
2021/09/14 08:28:08;;;;;;;12.18;10.50;;;;;;;21.16;64.60;101051.81;5033090;27;103998;-49
2021/09/14 08:30:34;;;;;;;12.38;11.18;;;;;;;21.16;64.62;101055.38;5040847;27;102155;-49
2021/09/14 08:33:03;;;;;;;13.18;11.75;;;;;;;21.17;64.61;101047.88;5042669;27;102322;-50
2021/09/14 08:35:30;;;;;;;12.63;11.35;;;;;;;21.18;64.45;101060.59;5032706;27;102195;-49
2021/09/14 08:38:00;;;;;;;12.52;11.23;;;;;;;21.16;64.63;101052.59;5041400;27;103727;-49
2021/09/14 08:40:28;;;;;;;12.98;11.57;;;;;;;21.18;64.43;101053.09;5040110;27;102629;-50
2021/09/14 08:42:58;;;;;;;13.23;11.82;;;;;;;21.18;64.86;101049.53;5046349;27;102581;-50
2021/09/14 08:45:24;;;;;;;11.98;10.77;;;;;;;21.19;64.55;101062.22;5045824;27;102814;-50
2021/09/14 08:47:51;;;;;;;12.60;11.35;;;;;;;21.19;64.51;101056.66;5043133;27;103911;-49
2021/09/14 08:50:22;;;;;;;12.73;11.43;;;;;;;21.20;64.61;101050.78;5048213;27;102777;-49
2021/09/14 08:52:50;;;;;;;13.68;11.43;;;;;;;21.20;64.67;101047.22;5046669;27;102351;-49
2021/09/14 08:55:18;;;;;;;13.13;11.27;;;;;;;21.21;64.64;101054.41;5044879;27;102550;-49
2021/09/14 08:57:49;;;;;;;12.77;11.47;;;;;;;21.21;64.71;101052.44;5038645;27;104030;-49
2021/09/14 09:00:28;;;;;;;13.30;11.90;;;;;;;21.21;64.54;101051.63;5047349;27;102305;-50
2021/09/14 09:02:55;;;;;;;13.35;11.82;;;;;;;21.22;64.56;101045.75;5053148;27;102351;-50
2021/09/14 09:05:29;;;;;;;13.57;12.13;;;;;;;21.21;64.44;101044.13;5035948;27;102209;-50
2021/09/14 09:07:56;;;;;;;13.30;11.98;;;;;;;21.22;64.60;101045.75;5048865;27;103026;-49
2021/09/14 09:10:23;;;;;;;14.05;12.35;;;;;;;21.23;64.50;101047.34;5036856;27;102744;-49
2021/09/14 09:12:50;;;;;;;13.07;11.77;;;;;;;21.22;64.74;101051.28;5044733;27;102417;-50
2021/09/14 09:15:27;;;;;;;13.73;12.20;;;;;;;21.23;64.75;101047.34;5049183;27;102418;-49
2021/09/14 09:18:06;;;;;;;14.35;12.50;;;;;;;21.22;64.70;101042.97;5049476;27;103612;-50
2021/09/14 09:20:34;;;;;;;13.50;12.20;;;;;;;21.24;64.57;101042.63;5046786;27;102662;-50
2021/09/14 09:23:02;;;;;;;;;;;;;;;21.23;64.72;101044.59;5043020;27;102209;-49
2021/09/14 09:25:29;;;;;;;14.73;12.13;;;;;;;21.23;64.61;101036.28;5051125;27;102756;-50
2021/09/14 09:28:08;;;;;;;14.23;11.95;;;;;;;21.24;64.66;101032.38;5048574;27;103856;-49
2021/09/14 09:30:37;;;;;;;13.57;11.73;;;;;;;21.25;64.40;101044.28;5050692;27;102233;-49
2021/09/14 09:33:08;;;;;;;13.77;12.40;;;;;;;21.25;64.70;101034.00;5050250;27;102273;-49
2021/09/14 09:35:36;;;;;;;13.05;11.75;;;;;;;21.25;64.67;101034.00;5049535;27;102219;-50
2021/09/14 09:38:04;;;;;;;14.15;11.70;;;;;;;21.27;64.66;101044.72;5047511;27;107838;-50
2021/09/14 09:40:33;;;;;;;12.68;11.48;;;;;;;21.25;64.56;101027.66;5048783;27;102509;-49
2021/09/14 09:43:03;;;;;;;13.35;11.95;;;;;;;21.26;64.54;101035.63;5048678;27;102446;-49
2021/09/14 09:45:30;;;;;;;13.45;12.10;;;;;;;21.25;64.56;101035.97;5041512;27;102620;-49
2021/09/14 09:48:01;;;;;;;13.38;12.07;;;;;;;21.26;64.64;101038.38;5045297;27;103925;-50
2021/09/14 09:50:27;;;;;;;12.90;11.70;;;;;;;21.27;64.67;101025.34;5048979;27;103218;-50
2021/09/14 09:52:54;;;;;;;12.68;11.40;;;;;;;21.26;64.58;101035.63;5048153;27;102420;-49
2021/09/14 09:55:22;;;;;;;13.23;11.93;;;;;;;21.25;64.64;101031.22;5046880;27;102582;-49
2021/09/14 09:57:50;;;;;;;12.68;11.48;;;;;;;21.27;64.59;101028.94;5040477;27;103867;-50
2021/09/14 10:00:17;;;;;;;12.45;11.27;;;;;;;21.26;64.67;101024.53;5043173;27;102344;-49
2021/09/14 10:02:50;;;;;;;12.60;11.40;;;;;;;21.27;64.59;101023.38;5037238;27;102236;-49
2021/09/14 10:05:22;;;;;;;13.07;11.77;;;;;;;21.28;64.63;101027.00;5042498;27;102524;-50
2021/09/14 10:07:49;;;;;;;12.73;11.57;;;;;;;21.27;64.60;101025.34;5046534;27;103894;-50
2021/09/14 10:10:16;;;;;;;12.52;11.32;;;;;;;21.27;64.58;101031.69;5046740;27;102594;-49
2021/09/14 10:12:42;;;;;;;11.90;10.73;;;;;;;21.27;64.59;101020.63;5050661;27;103182;-49
2021/09/14 10:15:11;;;;;;;12.63;11.38;;;;;;;21.28;64.44;101032.53;5049103;27;102296;-50
2021/09/14 10:17:47;;;;;;;11.80;10.77;;;;;;;21.26;64.59;101029.28;5048149;27;103924;-49
2021/09/14 10:20:18;;;;;;;12.57;11.38;;;;;;;21.27;64.52;101025.34;5045990;27;102448;-50
2021/09/14 10:22:58;;;;;;;12.05;10.95;;;;;;;21.27;64.62;101028.94;5051068;27;102437;-49
2021/09/14 10:25:25;;;;;;;12.47;11.30;;;;;;;21.27;64.59;101019.81;5041402;27;102600;-49
2021/09/14 10:27:52;;;;;;;12.18;11.00;;;;;;;21.27;64.49;101023.38;5036053;27;103628;-49
2021/09/14 10:30:24;;;;;;;12.40;11.30;;;;;;;21.28;64.62;101027.00;5045681;27;102485;-49
2021/09/14 10:32:51;;;;;;;11.98;10.88;;;;;;;21.27;64.46;101025.34;5045740;27;102338;-49
2021/09/14 10:35:28;;;;;;;11.70;10.50;;;;;;;21.26;64.71;101024.53;5058507;27;102947;-49
2021/09/14 10:38:06;;;;;;;11.98;10.73;;;;;;;21.25;64.52;101028.47;5047381;27;103937;-50
2021/09/14 10:40:41;;;;;;;11.73;10.63;;;;;;;21.25;64.59;101028.47;5048848;27;103126;-49
2021/09/14 10:43:08;;;;;;;11.40;10.30;;;;;;;21.25;64.44;101009.09;5046729;27;102517;-49
2021/09/14 10:45:42;;;;;;;12.55;11.35;;;;;;;21.25;64.61;101009.09;5048561;27;102367;-49
2021/09/14 10:48:20;;;;;;;11.77;10.68;;;;;;;21.25;64.70;101006.31;5032044;27;108124;-49
2021/09/14 10:50:48;;;;;;;11.20;10.23;;;;;;;21.24;64.47;101015.78;5035805;27;102271;-49
2021/09/14 10:53:27;;;;;;;12.27;11.05;;;;;;;21.24;64.39;101004.72;5046000;27;102718;-49
2021/09/14 10:55:56;;;;;;;11.43;10.32;;;;;;;21.23;64.42;101003.06;5045878;27;102726;-50
2021/09/14 10:58:23;;;;;;;11.32;10.23;;;;;;;21.23;64.38;101003.06;5047290;27;103906;-49
2021/09/14 11:00:51;;;;;;;11.38;10.35;;;;;;;21.24;64.46;100998.34;5049619;27;102666;-49
2021/09/14 11:03:18;;;;;;;11.77;10.77;;;;;;;21.23;64.47;100994.75;5035738;27;102865;-49
2021/09/14 11:05:53;;;;;;;11.52;10.23;;;;;;;21.23;64.49;101000.31;5041921;27;102440;-49
2021/09/14 11:08:24;;;;;;;12.20;10.93;;;;;;;21.23;64.41;100997.53;5051908;27;103952;-49
2021/09/14 11:10:58;;;;;;;11.48;10.38;;;;;;;21.22;64.43;100995.91;5051097;27;102696;-49
2021/09/14 11:13:26;;;;;;;11.25;10.15;;;;;;;21.22;64.44;101001.47;5042665;27;102316;-49
2021/09/14 11:15:59;;;;;;;12.07;10.90;;;;;;;21.23;64.57;100999.50;5058536;27;102429;-49
2021/09/14 11:18:29;;;;;;;12.93;11.73;;;;;;;21.23;64.50;100997.53;5048824;27;103862;-49
2021/09/14 11:21:07;;;;;;;12.20;11.00;;;;;;;21.22;64.40;100989.56;5045617;27;102441;-49
2021/09/14 11:23:34;;;;;;;11.90;10.80;;;;;;;21.22;64.45;100989.56;5046692;27;102229;-49
2021/09/14 11:26:01;;;;;;;11.32;10.32;;;;;;;21.22;64.32;100992.34;5048461;27;102610;-49
2021/09/14 11:28:28;;;;;;;11.20;10.20;;;;;;;21.21;64.41;100988.78;5049780;27;104020;-49
2021/09/14 11:30:57;;;;;;;11.68;10.57;;;;;;;21.21;64.30;100986.00;5047396;27;102482;-49
2021/09/14 11:33:25;;;;;;;11.93;10.63;;;;;;;21.21;64.40;100977.69;5045485;27;102606;-50
2021/09/14 11:35:52;;;;;;;11.40;10.30;;;;;;;21.21;64.51;100974.94;5035420;27;102191;-49
2021/09/14 11:38:22;;;;;;;11.55;10.45;;;;;;;21.21;64.43;100986.00;5047812;27;103995;-49
2021/09/14 11:40:52;;;;;;;11.13;10.13;;;;;;;21.21;64.53;100977.69;5040295;27;102477;-49
2021/09/14 11:43:21;;;;;;;11.60;10.60;;;;;;;21.20;64.38;100970.53;5039511;27;102699;-49
2021/09/14 11:45:50;;;;;;;10.75;9.73;;;;;;;21.20;64.33;100970.53;5045773;27;102513;-49
2021/09/14 11:48:19;;;;;;;11.43;10.43;;;;;;;21.20;64.51;100967.75;5048339;27;103921;-48
2021/09/14 11:50:46;;;;;;;12.73;10.77;;;;;;;21.20;64.44;100970.53;5047627;27;102330;-49
2021/09/14 11:53:14;;;;;;;11.70;10.50;;;;;;;21.20;64.32;100967.75;5044877;27;102752;-49
2021/09/14 11:55:44;;;;;;;12.03;10.83;;;;;;;21.19;64.55;100963.38;5046618;27;102661;-49
2021/09/14 11:58:11;;;;;;;15.05;10.68;;;;;;;21.19;64.45;100971.69;5047081;27;104002;-49
2021/09/14 12:00:40;;;;;;;11.48;10.38;;;;;;;21.19;64.53;100963.38;5046849;27;102370;-48
2021/09/14 12:19:08;;;;;;;11.55;10.55;;;;;;;21.14;64.21;100955.28;5069301;27;102337;-88
2021/09/14 12:21:35;;;;;;;11.25;10.25;;;;;;;21.14;64.46;100960.00;5042870;27;102191;-88
2021/09/14 12:24:04;;;;;;;11.60;10.50;;;;;;;21.13;64.50;100959.19;5040783;27;103838;-88
2021/09/14 12:26:39;;;;;;;10.98;10.00;;;;;;;21.14;64.50;100960.81;5044753;27;102182;-83
2021/09/14 12:29:08;;;;;;;12.32;11.13;;;;;;;21.14;64.50;100971.88;5028763;27;102363;-82